Time;durP1;ratioP1;P1;durP2;ratioP2;P2;SDS_P1;SDS_P2;PMS_P1;PMS_P2;Temp;Humidity;BMP_temperature;BMP_pressure;BME280_temperature;BME280_humidity;BME280_pressure;Samples;Min_cycle;Max_cycle;Signal;HPM_P1;HPM_P2
2022/08/26 00:00:20;;;;;;;3.45;1.45;;;21.50;99.90;;;;;;5041911;28;20017;-83
2022/08/26 00:02:46;;;;;;;3.30;1.50;;;21.50;99.90;;;;;;5032162;28;20027;-83
2022/08/26 00:05:11;;;;;;;3.60;1.52;;;21.50;99.90;;;;;;5043760;28;20020;-84
2022/08/26 00:07:37;;;;;;;3.45;1.50;;;21.40;99.90;;;;;;5033907;28;20043;-83
2022/08/26 00:10:05;;;;;;;5.20;1.35;;;21.40;99.90;;;;;;5038711;28;20081;-84
2022/08/26 00:12:30;;;;;;;2.42;1.30;;;21.40;99.90;;;;;;5040375;28;20036;-83
2022/08/26 00:14:56;;;;;;;2.67;1.45;;;21.40;99.90;;;;;;5038288;28;20397;-83
2022/08/26 00:17:22;;;;;;;4.93;1.23;;;21.40;99.90;;;;;;5041287;28;20036;-84
2022/08/26 00:19:48;;;;;;;3.63;1.75;;;21.30;99.90;;;;;;5089983;22;20044;-84
2022/08/26 00:22:14;;;;;;;2.83;1.50;;;21.30;99.90;;;;;;5057532;28;20039;-83
2022/08/26 00:24:39;;;;;;;4.03;1.38;;;21.30;99.90;;;;;;5062869;28;20509;-83
2022/08/26 00:27:05;;;;;;;3.13;1.58;;;21.30;99.90;;;;;;5055271;28;20028;-84
2022/08/26 00:29:33;;;;;;;3.50;1.58;;;21.20;99.90;;;;;;5064670;28;20080;-83
2022/08/26 00:31:59;;;;;;;3.10;1.67;;;21.20;99.90;;;;;;5068413;22;20475;-85
2022/08/26 00:34:25;;;;;;;3.63;1.48;;;21.20;99.90;;;;;;5072582;28;20025;-85
2022/08/26 00:36:50;;;;;;;3.13;1.73;;;21.20;99.90;;;;;;5072263;28;20012;-84
2022/08/26 00:39:16;;;;;;;2.78;1.35;;;21.20;99.90;;;;;;5073504;28;20028;-85
2022/08/26 00:41:42;;;;;;;3.33;1.73;;;21.10;99.90;;;;;;5072198;28;20068;-84
2022/08/26 00:44:09;;;;;;;5.20;1.83;;;21.10;99.90;;;;;;5072075;28;20032;-84
2022/08/26 00:46:42;;;;;;;3.17;1.40;;;21.10;99.90;;;;;;5088074;28;20016;-84
2022/08/26 00:49:18;;;;;;;2.83;1.40;;;21.10;99.90;;;;;;5085967;28;20024;-85
2022/08/26 00:51:54;;;;;;;3.90;1.83;;;21.10;99.90;;;;;;5066743;28;20393;-84
2022/08/26 00:54:23;;;;;;;2.83;1.42;;;21.10;99.90;;;;;;5069955;28;20013;-84
2022/08/26 00:56:55;;;;;;;2.95;1.42;;;21.10;99.90;;;;;;5071004;28;20048;-84
2022/08/26 00:59:22;;;;;;;4.93;1.45;;;21.00;99.90;;;;;;5072367;28;20012;-85
2022/08/26 01:01:48;;;;;;;2.95;1.45;;;21.00;99.90;;;;;;5071206;28;20028;-85
2022/08/26 01:04:18;;;;;;;4.63;1.83;;;20.90;99.90;;;;;;5072639;28;20020;-84
2022/08/26 01:06:45;;;;;;;3.53;1.60;;;20.90;99.90;;;;;;5069435;28;20013;-84
2022/08/26 01:09:11;;;;;;;3.13;1.77;;;20.80;99.90;;;;;;5086757;28;20074;-84
2022/08/26 01:11:36;;;;;;;3.70;1.45;;;20.80;99.90;;;;;;5071110;28;20798;-84
2022/08/26 01:14:04;;;;;;;3.42;1.48;;;20.80;99.90;;;;;;5071152;28;20095;-84
2022/08/26 01:16:31;;;;;;;4.43;1.50;;;20.80;99.90;;;;;;5071975;28;20160;-84
2022/08/26 01:19:05;;;;;;;3.38;1.70;;;20.70;99.90;;;;;;5081542;28;20489;-84
2022/08/26 01:21:44;;;;;;;4.10;1.80;;;20.70;99.90;;;;;;5072674;28;20032;-84
2022/08/26 01:24:10;;;;;;;3.47;1.58;;;20.70;99.90;;;;;;5072832;28;20017;-85
2022/08/26 01:26:40;;;;;;;4.68;1.40;;;20.70;99.90;;;;;;5070538;28;20048;-85
2022/08/26 01:29:11;;;;;;;3.28;1.63;;;20.60;99.90;;;;;;5086929;28;20492;-84
2022/08/26 01:31:44;;;;;;;;;;;20.60;99.90;;;;;;5073509;28;20036;-84
2022/08/26 01:34:31;;;;;;;3.20;1.42;;;20.60;99.90;;;;;;5074136;28;19908;-85
2022/08/26 01:37:31;;;;;;;3.22;1.60;;;20.70;99.90;;;;;;5071047;28;20033;-85
2022/08/26 01:39:57;;;;;;;5.00;1.40;;;20.60;99.90;;;;;;5065668;28;20036;-84
2022/08/26 01:42:25;;;;;;;2.80;1.50;;;20.60;99.90;;;;;;5071293;28;20025;-84
2022/08/26 01:45:11;;;;;;;3.55;1.40;;;20.60;99.90;;;;;;5089813;28;20480;-84
2022/08/26 01:47:38;;;;;;;4.40;1.70;;;20.60;99.90;;;;;;5070779;28;20360;-85
2022/08/26 01:50:25;;;;;;;3.22;1.25;;;20.60;99.90;;;;;;5071992;28;20028;-84
2022/08/26 01:52:53;;;;;;;4.78;1.38;;;20.50;99.90;;;;;;5073003;28;20017;-84
2022/08/26 01:55:20;;;;;;;3.10;1.65;;;20.50;99.90;;;;;;5075543;28;20024;-85
2022/08/26 01:57:50;;;;;;;2.95;1.30;;;20.50;99.90;;;;;;5090479;28;20028;-85
2022/08/26 02:00:16;;;;;;;3.30;1.60;;;20.50;99.90;;;;;;5086702;28;20020;-85
2022/08/26 02:02:44;;;;;;;4.28;2.05;;;20.50;99.90;;;;;;5073079;28;20024;-84
2022/08/26 02:05:16;;;;;;;4.22;1.48;;;20.50;99.90;;;;;;5070002;28;20107;-85
2022/08/26 02:07:43;;;;;;;2.97;1.35;;;20.60;99.90;;;;;;5074399;28;20033;-85
2022/08/26 02:10:09;;;;;;;4.13;1.77;;;20.50;99.90;;;;;;5073350;28;20024;-85
2022/08/26 02:12:36;;;;;;;2.72;1.20;;;20.50;99.90;;;;;;5075503;28;20047;-85
2022/08/26 02:15:06;;;;;;;3.95;1.58;;;20.50;99.90;;;;;;5075155;28;20380;-85
2022/08/26 02:17:42;;;;;;;3.08;1.60;;;20.50;99.90;;;;;;5065838;28;20025;-84
2022/08/26 02:20:10;;;;;;;3.55;1.83;;;20.50;99.90;;;;;;5090359;28;20039;-85
2022/08/26 02:22:37;;;;;;;3.47;1.77;;;20.40;99.90;;;;;;5072438;28;20020;-84
2022/08/26 02:25:14;;;;;;;2.80;1.70;;;20.40;99.90;;;;;;5074184;28;20020;-84
2022/08/26 02:27:40;;;;;;;4.43;1.77;;;20.30;99.90;;;;;;5070917;28;20032;-85
2022/08/26 02:30:11;;;;;;;3.42;1.65;;;20.40;99.90;;;;;;5073764;28;20066;-84
2022/08/26 02:32:37;;;;;;;3.00;1.48;;;20.30;99.90;;;;;;5085421;28;20395;-85
2022/08/26 02:35:04;;;;;;;3.80;1.65;;;20.30;99.90;;;;;;5072115;28;20039;-84
2022/08/26 02:37:31;;;;;;;5.05;2.08;;;20.30;99.90;;;;;;5071499;28;20021;-85
2022/08/26 02:39:56;;;;;;;3.28;1.77;;;20.30;99.90;;;;;;5089076;28;20130;-84
2022/08/26 02:42:22;;;;;;;2.90;1.60;;;20.20;99.90;;;;;;5087098;28;20473;-84
2022/08/26 02:44:48;;;;;;;5.22;2.10;;;20.20;99.90;;;;;;5073318;28;20439;-84
2022/08/26 02:47:15;;;;;;;3.90;1.50;;;20.20;99.90;;;;;;5077044;28;20025;-84
2022/08/26 02:49:44;;;;;;;3.00;1.88;;;20.20;99.90;;;;;;5073838;28;20056;-84
2022/08/26 02:52:10;;;;;;;4.60;2.00;;;20.20;99.90;;;;;;5066891;28;20489;-84
2022/08/26 02:54:36;;;;;;;3.42;1.75;;;20.10;99.90;;;;;;5071834;28;20039;-84
2022/08/26 02:57:02;;;;;;;3.42;1.88;;;20.10;99.90;;;;;;5068854;28;20108;-85
2022/08/26 02:59:28;;;;;;;5.82;1.83;;;20.10;99.90;;;;;;5072271;28;20092;-84
2022/08/26 03:01:54;;;;;;;3.70;1.63;;;20.10;99.90;;;;;;5080739;28;20028;-85
2022/08/26 03:04:20;;;;;;;3.50;1.90;;;20.00;99.90;;;;;;5098470;22;20017;-84
2022/08/26 03:06:49;;;;;;;4.05;1.98;;;20.00;99.90;;;;;;5067874;28;20493;-83
2022/08/26 03:09:15;;;;;;;3.88;2.10;;;19.90;99.90;;;;;;5052487;28;20066;-83
2022/08/26 03:11:41;;;;;;;4.45;1.95;;;19.90;99.90;;;;;;5064887;28;20036;-83
2022/08/26 03:14:07;;;;;;;4.10;2.28;;;19.90;99.90;;;;;;5067789;28;20012;-83
2022/08/26 03:16:34;;;;;;;4.13;2.47;;;19.90;99.90;;;;;;5060122;28;20096;-83
2022/08/26 03:19:01;;;;;;;4.10;1.92;;;19.80;99.90;;;;;;5077067;22;20049;-85
2022/08/26 03:21:27;;;;;;;3.22;1.63;;;19.80;99.90;;;;;;5057044;28;20032;-84
2022/08/26 03:23:53;;;;;;;3.75;1.92;;;19.80;99.90;;;;;;5067091;28;20036;-84
2022/08/26 03:26:19;;;;;;;4.15;2.13;;;19.80;99.90;;;;;;5060783;28;20485;-85
2022/08/26 03:30:38;;;;;;;3.83;1.80;;;19.80;99.90;;;;;;5060436;28;20047;-84
2022/08/26 03:31:30;;;;;;;4.22;1.80;;;19.70;99.90;;;;;;5058931;28;20167;-84
2022/08/26 03:33:56;;;;;;;3.47;1.60;;;19.70;99.90;;;;;;5063501;28;20480;-84
2022/08/26 03:36:21;;;;;;;4.10;1.95;;;19.70;99.90;;;;;;5058938;28;20507;-84
2022/08/26 03:38:47;;;;;;;3.50;1.75;;;19.70;99.90;;;;;;5064106;28;20048;-85
2022/08/26 03:41:13;;;;;;;3.33;1.65;;;19.70;99.90;;;;;;5054750;28;20104;-85
2022/08/26 03:43:40;;;;;;;3.75;1.63;;;19.60;99.90;;;;;;5061897;28;20421;-85
2022/08/26 03:46:07;;;;;;;4.00;1.77;;;19.60;99.90;;;;;;5058401;28;20504;-84
2022/08/26 03:48:33;;;;;;;3.65;1.90;;;19.60;99.90;;;;;;5060448;28;20033;-85
2022/08/26 03:51:00;;;;;;;4.38;1.60;;;19.50;99.90;;;;;;5062087;28;20528;-86
2022/08/26 03:53:25;;;;;;;4.25;2.05;;;19.50;99.90;;;;;;5059538;28;20513;-85
2022/08/26 03:55:51;;;;;;;3.70;1.83;;;19.50;99.90;;;;;;5059156;28;20357;-85
2022/08/26 03:58:17;;;;;;;3.30;1.90;;;19.50;99.90;;;;;;5061147;28;20103;-84
2022/08/26 04:00:43;;;;;;;4.90;2.33;;;19.40;99.90;;;;;;5057503;28;20504;-84
2022/08/26 04:03:10;;;;;;;3.63;1.83;;;19.40;99.90;;;;;;5060773;28;20017;-85
2022/08/26 04:05:36;;;;;;;3.97;1.85;;;19.30;99.90;;;;;;5060209;28;20029;-85
2022/08/26 04:08:04;;;;;;;3.67;1.80;;;19.40;99.90;;;;;;5063918;28;20485;-84
2022/08/26 04:10:31;;;;;;;3.88;1.95;;;19.30;99.90;;;;;;5061077;28;20138;-84
2022/08/26 04:12:57;;;;;;;5.30;2.13;;;19.30;99.90;;;;;;5062822;28;20461;-85
2022/08/26 04:15:23;;;;;;;4.53;1.70;;;19.30;99.90;;;;;;5065570;28;20074;-84
2022/08/26 04:17:48;;;;;;;3.90;1.80;;;19.30;99.90;;;;;;5057867;28;20115;-84
2022/08/26 04:20:16;;;;;;;3.63;2.00;;;19.30;99.90;;;;;;5063429;28;20469;-84
2022/08/26 04:22:43;;;;;;;3.55;1.95;;;19.30;99.90;;;;;;5055992;28;20485;-85
2022/08/26 04:25:10;;;;;;;4.25;1.92;;;19.30;99.90;;;;;;5055962;28;20036;-84
2022/08/26 04:27:37;;;;;;;5.57;2.30;;;19.30;99.90;;;;;;5060825;28;20033;-84
2022/08/26 04:30:04;;;;;;;4.07;2.08;;;19.30;99.90;;;;;;5058930;28;20499;-85
2022/08/26 04:32:29;;;;;;;4.43;2.20;;;19.30;99.90;;;;;;5069727;28;20456;-84
2022/08/26 04:34:55;;;;;;;4.13;2.03;;;19.30;99.90;;;;;;5061874;28;20268;-84
2022/08/26 04:37:21;;;;;;;4.80;2.15;;;19.30;99.90;;;;;;5056025;28;20032;-84
2022/08/26 04:39:51;;;;;;;3.90;1.85;;;19.30;99.90;;;;;;5056365;28;20012;-85
2022/08/26 04:42:16;;;;;;;4.07;1.70;;;19.30;99.90;;;;;;5061382;28;20075;-84
2022/08/26 04:44:42;;;;;;;4.32;1.85;;;19.20;99.90;;;;;;5062946;28;20044;-85
2022/08/26 04:47:08;;;;;;;3.78;2.15;;;19.20;99.90;;;;;;5061023;28;20036;-84
2022/08/26 04:49:34;;;;;;;3.67;1.75;;;19.30;99.90;;;;;;5056533;28;20041;-85
2022/08/26 04:51:59;;;;;;;4.68;2.25;;;19.20;99.90;;;;;;5058711;28;20021;-85
2022/08/26 04:54:25;;;;;;;3.30;1.77;;;19.20;99.90;;;;;;5062639;28;20024;-85
2022/08/26 04:56:51;;;;;;;3.30;2.05;;;19.20;99.90;;;;;;5055995;28;20107;-85
2022/08/26 04:59:17;;;;;;;4.93;1.88;;;19.20;99.90;;;;;;5059129;28;20017;-84
2022/08/26 05:01:48;;;;;;;3.58;1.60;;;19.20;99.90;;;;;;5062416;28;20116;-85
2022/08/26 05:04:14;;;;;;;3.67;1.88;;;19.20;99.90;;;;;;5059605;28;20028;-84
2022/08/26 05:06:40;;;;;;;3.25;1.70;;;19.20;99.90;;;;;;5062058;28;20028;-84
2022/08/26 05:09:05;;;;;;;4.10;1.75;;;19.30;99.90;;;;;;5058557;28;20036;-85
2022/08/26 05:11:31;;;;;;;4.82;2.00;;;19.30;99.90;;;;;;5050050;28;20029;-85
2022/08/26 05:13:56;;;;;;;4.82;2.20;;;19.30;99.90;;;;;;5054977;28;20036;-85
2022/08/26 05:16:22;;;;;;;4.90;2.10;;;19.30;99.90;;;;;;5057913;28;20033;-84
2022/08/26 05:18:48;;;;;;;4.20;2.00;;;19.30;99.90;;;;;;5064481;28;20033;-85
2022/08/26 05:21:23;;;;;;;4.85;2.30;;;19.30;99.90;;;;;;5066351;28;20013;-85
2022/08/26 05:23:53;;;;;;;5.80;2.30;;;19.10;99.90;;;;;;5057382;28;20017;-84
2022/08/26 05:26:24;;;;;;;3.85;1.92;;;18.90;99.90;;;;;;5062066;28;20055;-85
2022/08/26 05:28:51;;;;;;;4.35;2.20;;;18.90;99.90;;;;;;5050447;28;20493;-85
2022/08/26 05:31:23;;;;;;;4.05;2.03;;;18.90;99.90;;;;;;5056082;28;20033;-84
2022/08/26 05:33:49;;;;;;;4.20;2.20;;;18.90;99.90;;;;;;5067476;28;20473;-84
2022/08/26 05:36:18;;;;;;;3.55;1.83;;;19.00;99.90;;;;;;5062189;28;20021;-85
2022/08/26 05:38:44;;;;;;;3.90;1.92;;;19.10;99.90;;;;;;5060987;28;20437;-84
2022/08/26 05:41:17;;;;;;;3.90;1.92;;;19.10;99.90;;;;;;5057212;28;20025;-84
2022/08/26 05:43:44;;;;;;;3.83;2.15;;;19.00;99.90;;;;;;5062196;28;20051;-84
2022/08/26 05:46:09;;;;;;;3.70;1.90;;;18.90;99.90;;;;;;5057572;28;20032;-84
2022/08/26 05:48:35;;;;;;;3.55;2.17;;;18.70;99.90;;;;;;5056345;28;20401;-84
2022/08/26 05:51:07;;;;;;;4.57;2.35;;;18.70;99.90;;;;;;5076679;28;20507;-84
2022/08/26 05:53:33;;;;;;;;;;;18.60;99.90;;;;;;5064078;28;20071;-84
2022/08/26 05:55:59;;;;;;;4.65;1.95;;;18.60;99.90;;;;;;5059385;28;19913;-84
2022/08/26 05:58:26;;;;;;;4.47;2.17;;;18.70;99.90;;;;;;5055156;28;20036;-85
2022/08/26 06:01:14;;;;;;;5.60;2.40;;;18.80;99.90;;;;;;5064830;28;20477;-84
2022/08/26 06:03:43;;;;;;;4.43;1.63;;;19.00;99.90;;;;;;5058035;28;20040;-84
2022/08/26 06:06:15;;;;;;;3.53;1.80;;;19.10;99.90;;;;;;5076733;28;20062;-85
2022/08/26 06:08:41;;;;;;;4.85;2.20;;;19.20;99.90;;;;;;5075189;28;20055;-85
2022/08/26 06:11:10;;;;;;;4.60;2.60;;;19.20;99.90;;;;;;5059478;28;20111;-85
2022/08/26 06:13:37;;;;;;;5.65;2.35;;;19.20;99.90;;;;;;5059935;28;20519;-85
2022/08/26 06:16:05;;;;;;;5.15;2.78;;;19.30;99.90;;;;;;5063363;28;20456;-85
2022/08/26 06:18:35;;;;;;;4.70;2.40;;;19.30;99.90;;;;;;5068597;28;20095;-84
2022/08/26 06:21:13;;;;;;;5.32;2.58;;;19.40;99.90;;;;;;5063070;28;20009;-84
2022/08/26 06:26:22;;;;;;;4.97;2.53;;;19.40;99.90;;;;;;5060626;28;20551;-84
2022/08/26 06:28:48;;;;;;;6.25;2.60;;;19.40;99.90;;;;;;5064787;28;20017;-85
2022/08/26 06:31:14;;;;;;;6.15;2.50;;;19.50;99.90;;;;;;5062018;28;20025;-85
2022/08/26 06:33:41;;;;;;;4.18;2.03;;;19.50;99.90;;;;;;5065696;28;20072;-85
2022/08/26 06:36:06;;;;;;;4.35;2.17;;;19.60;99.90;;;;;;5056485;28;20023;-84
2022/08/26 06:38:32;;;;;;;3.83;2.13;;;19.80;99.90;;;;;;5066312;28;20037;-84
2022/08/26 06:40:58;;;;;;;3.80;1.92;;;19.90;99.90;;;;;;5059523;28;20025;-85
2022/08/26 06:43:25;;;;;;;4.55;1.83;;;19.90;99.90;;;;;;5064629;28;20025;-84
2022/08/26 06:45:58;;;;;;;5.10;2.22;;;20.00;99.90;;;;;;5059208;28;20472;-85
2022/08/26 06:48:24;;;;;;;4.43;2.08;;;20.10;99.90;;;;;;5064333;28;20485;-85
2022/08/26 06:50:49;;;;;;;3.47;1.70;;;20.20;99.90;;;;;;5058951;28;20029;-85
2022/08/26 06:53:15;;;;;;;3.50;1.92;;;20.20;99.90;;;;;;5061703;28;20416;-85
2022/08/26 06:55:45;;;;;;;4.22;1.92;;;20.10;99.90;;;;;;5061803;28;20032;-84
2022/08/26 06:58:13;;;;;;;4.10;2.10;;;20.20;99.90;;;;;;5059730;28;20020;-85
2022/08/26 07:00:39;;;;;;;3.70;2.00;;;20.20;99.90;;;;;;5059741;28;20021;-85
2022/08/26 07:03:06;;;;;;;4.38;2.00;;;20.20;99.90;;;;;;5065505;28;20044;-85
2022/08/26 07:05:32;;;;;;;5.95;2.30;;;20.20;99.90;;;;;;5070000;28;20047;-85
2022/08/26 07:07:58;;;;;;;4.60;2.40;;;20.10;99.90;;;;;;5063038;28;20066;-85
2022/08/26 07:10:25;;;;;;;4.25;2.25;;;20.20;99.90;;;;;;5062004;28;20028;-85
2022/08/26 07:12:51;;;;;;;4.22;2.05;;;20.40;99.90;;;;;;5050510;28;20477;-85
2022/08/26 07:15:17;;;;;;;4.47;2.45;;;20.40;99.90;;;;;;5060433;28;20049;-85
2022/08/26 07:17:43;;;;;;;6.53;2.45;;;20.50;99.90;;;;;;5057902;28;20575;-85
2022/08/26 07:20:10;;;;;;;5.10;2.22;;;20.60;99.90;;;;;;5060269;28;20055;-85
2022/08/26 07:22:36;;;;;;;4.68;2.83;;;20.80;99.90;;;;;;5059987;28;20020;-85
2022/08/26 07:25:06;;;;;;;5.72;2.15;;;20.90;99.90;;;;;;5057216;28;20074;-85
2022/08/26 07:27:32;;;;;;;4.78;2.05;;;21.10;99.90;;;;;;5065031;28;20052;-85
2022/08/26 07:29:58;;;;;;;5.30;2.70;;;21.20;99.90;;;;;;5062342;28;20029;-85
2022/08/26 07:32:24;;;;;;;3.90;2.00;;;21.30;99.90;;;;;;5056944;28;20178;-85
2022/08/26 07:34:50;;;;;;;6.03;2.20;;;21.40;99.90;;;;;;5067027;28;20019;-85
2022/08/26 07:37:15;;;;;;;3.78;1.83;;;21.50;99.90;;;;;;5054095;28;20076;-85
2022/08/26 07:39:41;;;;;;;4.95;2.38;;;21.40;99.90;;;;;;5060590;28;20029;-85
2022/08/26 07:42:09;;;;;;;5.05;2.60;;;21.60;99.90;;;;;;5063447;28;20040;-86
2022/08/26 07:44:36;;;;;;;4.10;2.00;;;21.70;99.90;;;;;;5058672;28;20017;-86
2022/08/26 07:47:02;;;;;;;6.47;2.08;;;21.80;99.90;;;;;;5062961;28;20024;-85
2022/08/26 07:49:28;;;;;;;4.32;1.67;;;22.00;99.90;;;;;;5052265;28;20029;-85
2022/08/26 07:51:54;;;;;;;4.05;1.83;;;22.10;99.90;;;;;;5057828;28;20017;-85
2022/08/26 07:54:20;;;;;;;3.20;1.60;;;22.20;99.90;;;;;;5059386;28;20389;-85
2022/08/26 07:56:47;;;;;;;3.53;1.90;;;22.30;99.90;;;;;;5058282;28;20028;-85
2022/08/26 07:59:13;;;;;;;2.85;1.80;;;22.40;99.90;;;;;;5051572;28;20025;-85
2022/08/26 08:01:39;;;;;;;3.95;1.92;;;22.50;99.90;;;;;;5062154;28;20446;-85
2022/08/26 08:04:06;;;;;;;3.42;1.67;;;22.60;99.90;;;;;;5054823;28;20025;-85
2022/08/26 08:06:32;;;;;;;5.80;1.95;;;22.70;99.90;;;;;;5058849;28;20107;-85
2022/08/26 08:08:59;;;;;;;4.00;2.10;;;22.70;99.90;;;;;;5057003;28;20032;-85
2022/08/26 08:11:27;;;;;;;5.05;2.03;;;22.90;99.90;;;;;;5058365;28;20029;-85
2022/08/26 08:13:54;;;;;;;4.28;1.88;;;22.90;99.90;;;;;;5061553;28;20020;-85
2022/08/26 08:16:20;;;;;;;3.47;2.03;;;23.10;99.90;;;;;;5061118;28;20028;-85
2022/08/26 08:18:48;;;;;;;4.43;2.13;;;23.20;99.90;;;;;;5054880;28;20512;-85
2022/08/26 08:21:14;;;;;;;4.15;1.98;;;23.40;99.90;;;;;;5058799;28;20017;-86
2022/08/26 08:23:39;;;;;;;3.97;2.10;;;23.50;99.90;;;;;;5051894;28;20025;-85
2022/08/26 08:26:09;;;;;;;4.03;1.92;;;23.60;99.90;;;;;;5060526;28;20043;-86
2022/08/26 08:28:37;;;;;;;4.60;1.83;;;23.70;99.90;;;;;;5060345;28;20505;-86
2022/08/26 08:31:03;;;;;;;6.75;1.88;;;23.80;99.90;;;;;;5061559;28;20024;-86
2022/08/26 08:33:30;;;;;;;3.88;1.85;;;24.00;99.90;;;;;;5063871;28;20039;-86
2022/08/26 08:35:57;;;;;;;4.90;2.03;;;24.20;99.90;;;;;;5056722;28;20021;-85
2022/08/26 08:38:22;;;;;;;5.35;1.85;;;24.30;99.90;;;;;;5066679;28;20400;-86
2022/08/26 08:40:48;;;;;;;3.63;1.60;;;24.40;99.90;;;;;;5060723;28;20028;-86
2022/08/26 08:43:25;;;;;;;3.22;1.52;;;24.50;99.90;;;;;;5055889;28;20020;-85
2022/08/26 08:45:59;;;;;;;5.13;2.20;;;24.70;99.90;;;;;;5062666;28;20035;-85
2022/08/26 08:48:29;;;;;;;3.33;1.75;;;24.80;99.90;;;;;;5054390;28;20135;-86
2022/08/26 08:51:06;;;;;;;5.65;1.70;;;25.10;99.90;;;;;;5056452;28;20091;-86
2022/08/26 08:53:38;;;;;;;3.05;1.33;;;25.20;99.90;;;;;;5062338;28;20028;-85
2022/08/26 08:56:30;;;;;;;3.75;1.30;;;25.50;99.90;;;;;;5060872;28;20048;-85
2022/08/26 08:59:02;;;;;;;2.53;1.20;;;25.60;99.90;;;;;;5062792;28;20061;-86
2022/08/26 09:01:46;;;;;;;3.70;1.60;;;25.70;99.90;;;;;;5057400;28;20017;-86
2022/08/26 09:04:17;;;;;;;2.45;1.10;;;25.90;99.90;;;;;;5062159;28;20012;-85
2022/08/26 09:06:44;;;;;;;;;;;26.20;99.80;;;;;;5060285;28;20028;-86
2022/08/26 09:09:20;;;;;;;2.45;1.20;;;26.50;99.30;;;;;;5057943;28;19912;-86
2022/08/26 09:11:45;;;;;;;2.28;1.10;;;26.80;98.10;;;;;;5062661;28;20020;-85
2022/08/26 09:14:11;;;;;;;5.97;1.02;;;26.90;97.90;;;;;;5056890;28;20498;-86
2022/08/26 09:17:05;;;;;;;2.78;1.08;;;26.90;97.30;;;;;;5066310;28;20029;-85
2022/08/26 09:19:34;;;;;;;2.42;1.10;;;26.80;97.30;;;;;;5048647;28;20123;-85
2022/08/26 09:22:00;;;;;;;2.55;1.20;;;26.60;97.10;;;;;;5064528;28;20028;-85
2022/08/26 09:24:29;;;;;;;2.08;1.20;;;26.60;97.50;;;;;;5059861;28;20037;-86
2022/08/26 09:26:57;;;;;;;2.08;1.08;;;26.50;97.50;;;;;;5061866;28;20028;-85
2022/08/26 09:29:24;;;;;;;3.00;1.20;;;26.50;98.20;;;;;;5058493;28;20497;-85
2022/08/26 09:31:52;;;;;;;1.75;0.93;;;26.50;97.50;;;;;;5066871;28;20028;-86
2022/08/26 09:34:20;;;;;;;2.60;1.10;;;26.50;97.10;;;;;;5062077;28;20028;-85
2022/08/26 09:36:54;;;;;;;2.25;1.15;;;26.50;96.80;;;;;;5055664;28;20447;-85
2022/08/26 09:39:26;;;;;;;1.85;1.10;;;26.60;97.20;;;;;;5060481;28;20112;-85
2022/08/26 09:42:05;;;;;;;2.50;1.10;;;26.60;96.90;;;;;;5053205;28;20027;-85
2022/08/26 09:44:31;;;;;;;4.00;1.98;;;26.60;97.10;;;;;;5060213;28;20529;-85
2022/08/26 09:47:06;;;;;;;2.97;1.30;;;26.70;97.10;;;;;;5063055;28;20032;-85
2022/08/26 09:49:36;;;;;;;2.17;1.10;;;26.80;97.10;;;;;;5060505;28;20092;-85
2022/08/26 09:52:03;;;;;;;3.00;1.50;;;26.80;96.90;;;;;;5060321;28;20024;-85
2022/08/26 09:54:28;;;;;;;3.83;1.70;;;26.60;97.10;;;;;;5068252;28;20016;-86
2022/08/26 09:57:17;;;;;;;4.43;1.40;;;26.60;97.30;;;;;;5060790;28;20024;-86
2022/08/26 09:59:43;;;;;;;3.47;1.33;;;27.00;96.70;;;;;;5066019;28;20032;-86
2022/08/26 10:02:23;;;;;;;2.60;1.30;;;27.00;96.30;;;;;;5058351;28;20017;-86
2022/08/26 10:04:55;;;;;;;3.38;1.50;;;27.20;96.90;;;;;;5066090;28;20043;-85
2022/08/26 10:07:39;;;;;;;4.97;1.70;;;27.50;97.40;;;;;;5067695;28;20033;-86
2022/08/26 10:10:14;;;;;;;2.70;1.48;;;27.80;96.90;;;;;;5058182;28;20107;-86
2022/08/26 10:13:01;;;;;;;3.22;1.48;;;28.10;96.60;;;;;;5065165;28;20067;-87
2022/08/26 10:15:32;;;;;;;5.15;1.27;;;28.30;96.50;;;;;;5058030;28;20033;-86
2022/08/26 10:18:11;;;;;;;3.88;1.80;;;28.20;95.90;;;;;;5063637;28;20088;-86
2022/08/26 10:20:48;;;;;;;3.40;1.50;;;28.50;95.70;;;;;;5064398;28;20078;-86
2022/08/26 10:23:18;;;;;;;2.42;1.30;;;28.50;95.70;;;;;;5077109;28;20452;-86
2022/08/26 10:25:58;;;;;;;3.53;1.40;;;28.80;95.10;;;;;;5065523;28;20065;-86
2022/08/26 10:28:36;;;;;;;3.75;1.38;;;28.80;95.00;;;;;;5055150;28;20109;-86
2022/08/26 10:31:27;;;;;;;2.65;1.30;;;28.90;95.00;;;;;;5058442;28;20056;-86
2022/08/26 10:33:54;;;;;;;3.83;1.60;;;28.90;94.60;;;;;;5054869;28;20025;-86
2022/08/26 10:39:14;;;;;;;3.75;1.35;;;29.00;94.30;;;;;;5059291;28;20154;-86
2022/08/26 10:41:45;;;;;;;3.40;1.67;;;28.90;94.40;;;;;;5058068;28;20024;-87
2022/08/26 10:44:13;;;;;;;2.67;1.40;;;29.00;94.40;;;;;;5060231;28;20027;-86
2022/08/26 10:46:49;;;;;;;2.42;1.38;;;29.20;94.20;;;;;;5062670;28;20078;-86
2022/08/26 10:49:16;;;;;;;3.78;2.00;;;29.50;93.40;;;;;;5059114;28;20420;-86
2022/08/26 10:52:04;;;;;;;3.00;1.20;;;29.90;93.20;;;;;;5064976;28;20024;-87
2022/08/26 10:54:51;;;;;;;3.50;1.70;;;30.40;92.30;;;;;;5059032;28;20044;-87
2022/08/26 10:57:28;;;;;;;3.67;1.60;;;30.70;91.60;;;;;;5056745;28;20477;-87
2022/08/26 11:01:40;;;;;;;2.45;1.25;;;30.80;91.20;;;;;;5069204;28;20031;-87
2022/08/26 11:02:52;;;;;;;2.22;1.25;;;31.10;91.10;;;;;;5054430;28;20052;-87
2022/08/26 11:05:22;;;;;;;2.97;1.50;;;31.50;90.60;;;;;;5076316;28;20017;-87
2022/08/26 11:07:55;;;;;;;4.57;1.40;;;31.50;90.00;;;;;;5064722;28;20484;-86
2022/08/26 11:10:21;;;;;;;5.25;1.85;;;31.90;89.70;;;;;;5059048;28;20082;-88
2022/08/26 11:12:51;;;;;;;6.88;2.08;;;31.90;88.10;;;;;;5058670;28;20065;-87
2022/08/26 11:15:19;;;;;;;3.40;1.55;;;31.60;88.10;;;;;;5048053;28;20017;-87
2022/08/26 11:17:45;;;;;;;2.42;1.13;;;31.30;88.70;;;;;;5062019;28;20116;-86
2022/08/26 11:20:31;;;;;;;4.57;1.58;;;30.70;88.90;;;;;;5058652;28;20107;-86
2022/08/26 11:23:21;;;;;;;6.00;1.92;;;30.50;89.40;;;;;;5053634;28;20020;-86
2022/08/26 11:25:55;;;;;;;3.75;1.42;;;30.20;90.00;;;;;;5033694;28;20028;-86
2022/08/26 11:28:47;;;;;;;6.85;1.70;;;30.30;90.00;;;;;;5047365;28;20013;-86
2022/08/26 11:31:25;;;;;;;3.95;1.40;;;30.30;89.70;;;;;;5060267;28;20096;-87
2022/08/26 11:33:57;;;;;;;3.30;1.30;;;30.10;90.00;;;;;;5058677;28;20021;-86
2022/08/26 11:36:54;;;;;;;2.85;1.30;;;29.90;89.60;;;;;;5065969;28;20386;-86
2022/08/26 11:39:49;;;;;;;3.13;1.60;;;29.70;90.00;;;;;;5067051;28;20028;-86
2022/08/26 11:42:19;;;;;;;4.35;1.67;;;29.60;90.20;;;;;;5051753;28;20030;-86
2022/08/26 11:44:45;;;;;;;3.38;1.45;;;29.50;89.90;;;;;;5054491;28;20182;-87
2022/08/26 11:47:16;;;;;;;3.30;1.48;;;29.50;90.00;;;;;;5061522;28;20052;-86
2022/08/26 11:49:42;;;;;;;4.15;1.60;;;29.30;90.20;;;;;;5061885;28;20021;-86
2022/08/26 11:52:11;;;;;;;3.67;1.55;;;29.20;90.40;;;;;;5060584;28;20025;-86
2022/08/26 11:54:37;;;;;;;5.30;1.40;;;29.10;90.90;;;;;;5066854;28;20104;-86
2022/08/26 11:57:06;;;;;;;4.32;1.60;;;29.00;91.10;;;;;;5057058;28;20100;-87
2022/08/26 11:59:37;;;;;;;3.58;1.60;;;29.00;91.60;;;;;;5060549;28;20055;-86
2022/08/26 12:02:09;;;;;;;5.00;1.88;;;29.00;91.10;;;;;;5055157;28;20367;-87
2022/08/26 12:04:40;;;;;;;3.17;1.27;;;29.30;91.30;;;;;;5051367;28;20021;-86
2022/08/26 12:07:07;;;;;;;3.72;1.80;;;29.80;89.50;;;;;;5057327;28;20071;-86
2022/08/26 12:09:36;;;;;;;4.05;1.95;;;30.50;90.10;;;;;;5062944;28;20016;-86
2022/08/26 12:12:36;;;;;;;4.50;1.95;;;30.80;89.90;;;;;;5058384;28;20021;-88
2022/08/26 12:15:17;;;;;;;4.60;2.17;;;31.30;88.60;;;;;;5048764;28;20025;-88
2022/08/26 12:17:45;;;;;;;3.95;1.63;;;31.40;88.20;;;;;;5056871;28;20086;-86
2022/08/26 12:20:53;;;;;;;3.83;1.67;;;31.50;88.30;;;;;;5060726;28;20027;-87
2022/08/26 12:23:33;;;;;;;3.17;1.90;;;31.70;88.10;;;;;;5054836;28;20025;-86
2022/08/26 12:26:08;;;;;;;3.55;1.75;;;32.10;86.40;;;;;;5052533;28;20547;-86
2022/08/26 12:28:45;;;;;;;5.90;2.45;;;32.70;85.40;;;;;;5060444;28;20033;-88
2022/08/26 12:31:18;;;;;;;6.28;1.80;;;33.00;83.90;;;;;;5059789;28;20439;-87
2022/08/26 12:33:44;;;;;;;7.13;2.35;;;33.20;83.60;;;;;;5063368;28;20064;-86
2022/08/26 12:36:10;;;;;;;2.80;1.58;;;32.80;83.30;;;;;;5049613;28;20060;-87
2022/08/26 12:38:36;;;;;;;3.67;1.80;;;32.90;82.60;;;;;;5063006;28;20040;-87
2022/08/26 12:41:02;;;;;;;4.15;1.92;;;32.60;83.10;;;;;;5057185;28;20074;-87
2022/08/26 12:43:44;;;;;;;4.00;1.63;;;32.70;83.90;;;;;;5058074;28;20036;-86
2022/08/26 12:46:23;;;;;;;5.10;1.92;;;32.90;84.60;;;;;;5049870;28;20017;-87
2022/08/26 12:48:48;;;;;;;4.53;1.80;;;33.20;84.10;;;;;;5054482;28;20056;-86
2022/08/26 12:51:24;;;;;;;2.97;1.50;;;33.50;82.80;;;;;;5052087;28;20064;-87
2022/08/26 12:53:50;;;;;;;3.22;1.50;;;33.70;82.30;;;;;;5055519;28;20009;-87
2022/08/26 12:56:32;;;;;;;4.00;1.60;;;33.30;81.40;;;;;;5061802;28;20025;-87
2022/08/26 12:59:21;;;;;;;2.50;1.33;;;32.90;82.40;;;;;;5052957;28;20021;-86
2022/08/26 13:01:48;;;;;;;3.15;1.60;;;32.40;82.70;;;;;;5055884;28;20047;-86
2022/08/26 13:04:42;;;;;;;4.90;1.73;;;32.00;83.50;;;;;;5059808;28;20203;-86
2022/08/26 13:07:26;;;;;;;3.47;1.73;;;31.30;83.80;;;;;;5045821;28;20107;-86